createdAt,value
2023-05-14T00:01:19.008Z,95415.47
2023-05-14T00:04:20.889Z,95426.94
2023-05-14T00:07:22.719Z,95420.44
2023-05-14T00:10:24.857Z,95425.03
2023-05-14T00:13:26.955Z,95428.66
2023-05-14T00:16:28.841Z,95422.13
2023-05-14T00:19:30.724Z,95418.97
2023-05-14T00:22:33.348Z,95419.22
2023-05-14T00:25:35.778Z,95410.25
2023-05-14T00:28:37.650Z,95411.06
2023-05-14T00:31:39.476Z,95416.44
2023-05-14T00:34:41.498Z,95410.88
2023-05-14T00:37:43.276Z,95421.31
2023-05-14T00:40:51.200Z,95411.75
2023-05-14T00:43:53.029Z,95423.81
2023-05-14T00:46:55.034Z,95411.22
2023-05-14T00:49:57.064Z,95410.78
2023-05-14T00:52:59.050Z,95413.81
2023-05-14T00:56:00.936Z,95409.16
2023-05-14T00:59:02.789Z,95409.78
2023-05-14T01:02:04.817Z,95406.91
2023-05-14T01:05:08.093Z,95406.91
2023-05-14T01:08:24.300Z,95406.09
2023-05-14T01:11:29.227Z,95413.13
2023-05-14T01:14:48.981Z,95410.78
2023-05-14T01:18:02.221Z,95412.56
2023-05-14T01:21:04.290Z,95411.34
2023-05-14T01:24:06.852Z,95413.16
2023-05-14T01:27:17.744Z,95408.84
2023-05-14T01:30:22.192Z,95412.47
2023-05-14T01:33:27.626Z,95411.38
2023-05-14T01:36:30.164Z,95409.44
2023-05-14T01:39:32.985Z,95412.06
2023-05-14T01:42:35.479Z,95401.81
2023-05-14T01:45:37.901Z,95404.59
2023-05-14T01:48:41.428Z,95394.47
2023-05-14T01:51:43.320Z,95394.78
2023-05-14T01:54:45.110Z,95401.41
2023-05-14T01:57:46.944Z,95398.09
2023-05-14T02:00:49.258Z,95398.38
2023-05-14T02:03:51.323Z,95391.75
2023-05-14T02:06:53.219Z,95400.31
2023-05-14T02:09:55.011Z,95387.19
2023-05-14T02:12:56.807Z,95382.47
2023-05-14T02:15:58.815Z,95375.56
2023-05-14T02:19:00.779Z,95374.06
2023-05-14T02:22:02.659Z,95365.78
2023-05-14T02:25:04.711Z,95371.28
2023-05-14T02:28:06.574Z,95368.25
2023-05-14T02:31:08.467Z,95364.38
2023-05-14T02:34:10.497Z,95354.69
2023-05-14T02:37:12.354Z,95362.44
2023-05-14T02:40:14.644Z,95356.59
2023-05-14T02:43:16.506Z,95345.16
2023-05-14T02:46:18.478Z,95340.06
2023-05-14T02:49:20.377Z,95336.41
2023-05-14T02:52:22.304Z,95330.16
2023-05-14T02:55:26.455Z,95337.28
2023-05-14T02:58:28.594Z,95338.03
2023-05-14T03:01:30.721Z,95333.84
2023-05-14T03:04:32.882Z,95330.78
2023-05-14T03:07:34.630Z,95337.56
2023-05-14T03:10:37.114Z,95342.50
2023-05-14T03:13:38.948Z,95342.66
2023-05-14T03:16:42.381Z,95342.28
2023-05-14T03:19:44.429Z,95340.81
2023-05-14T03:22:46.401Z,95344.22
2023-05-14T03:25:48.300Z,95343.56
2023-05-14T03:28:50.895Z,95337.03
2023-05-14T03:31:53.480Z,95341.59
2023-05-14T03:34:55.723Z,95343.63
2023-05-14T03:37:59.263Z,95341.72
2023-05-14T03:41:01.119Z,95349.22
2023-05-14T03:44:02.995Z,95332.38
2023-05-14T03:47:05.290Z,95340.00
2023-05-14T03:50:08.000Z,95328.44
2023-05-14T03:53:09.960Z,95332.22
2023-05-14T03:56:11.760Z,95328.97
2023-05-14T03:59:13.547Z,95338.31
2023-05-14T04:02:15.655Z,95344.19
2023-05-14T04:05:17.460Z,95340.00
2023-05-14T04:08:19.344Z,95349.00
2023-05-14T04:11:21.650Z,95350.22
2023-05-14T04:14:23.532Z,95353.28
2023-05-14T04:17:25.963Z,95340.03
2023-05-14T04:20:28.058Z,95337.56
2023-05-14T04:23:31.809Z,95335.38
2023-05-14T04:26:33.604Z,95332.28
2023-05-14T04:29:35.379Z,95329.50
2023-05-14T04:32:37.969Z,95327.81
2023-05-14T04:35:39.898Z,95324.59
2023-05-14T04:38:42.153Z,95318.56
2023-05-14T04:41:43.990Z,95315.97
2023-05-14T04:44:46.392Z,95319.72
2023-05-14T04:47:48.488Z,95315.47
2023-05-14T04:50:50.344Z,95316.63
2023-05-14T04:53:52.277Z,95322.84
2023-05-14T04:56:55.912Z,95327.81
2023-05-14T04:59:57.729Z,95326.53
2023-05-14T05:02:59.643Z,95316.91
2023-05-14T05:06:01.697Z,95315.81
2023-05-14T05:09:03.702Z,95304.34
2023-05-14T05:12:06.404Z,95303.22
2023-05-14T05:15:11.144Z,95296.44
2023-05-14T05:18:13.234Z,95289.06
2023-05-14T05:21:15.049Z,95289.59
2023-05-14T05:24:16.949Z,95293.28
2023-05-14T05:27:18.822Z,95281.94
2023-05-14T05:30:20.784Z,95280.63
2023-05-14T05:33:22.997Z,95279.94
2023-05-14T05:36:24.903Z,95290.00
2023-05-14T05:39:26.690Z,95294.94
2023-05-14T05:42:28.737Z,95295.63
2023-05-14T05:45:30.671Z,95286.97
2023-05-14T05:48:32.579Z,95288.19
2023-05-14T05:51:34.482Z,95285.97
2023-05-14T05:54:36.433Z,95284.50
2023-05-14T05:57:38.295Z,95276.78
2023-05-14T06:00:40.082Z,95282.28
2023-05-14T06:03:41.949Z,95282.97
2023-05-14T06:06:43.783Z,95276.56
2023-05-14T06:09:45.708Z,95282.50
2023-05-14T06:12:47.601Z,95275.19
2023-05-14T06:15:49.415Z,95275.75
2023-05-14T06:18:52.782Z,95275.59
2023-05-14T06:21:54.737Z,95283.84
2023-05-14T06:24:56.613Z,95283.53
2023-05-14T06:27:58.574Z,95272.84
2023-05-14T06:31:00.478Z,95279.28
2023-05-14T06:34:02.335Z,95273.84
2023-05-14T06:37:04.347Z,95276.75
2023-05-14T06:40:06.819Z,95273.09
2023-05-14T06:43:08.703Z,95261.69
2023-05-14T06:46:10.544Z,95268.50
2023-05-14T06:49:12.535Z,95262.63
2023-05-14T06:52:14.384Z,95267.19
2023-05-14T06:55:16.244Z,95272.91
2023-05-14T06:58:18.154Z,95259.34
2023-05-14T07:01:20.153Z,95262.72
2023-05-14T07:04:22.079Z,95265.19
2023-05-14T07:07:23.983Z,95255.94
2023-05-14T07:10:26.433Z,95255.06
2023-05-14T07:13:28.896Z,95259.34
2023-05-14T07:16:31.152Z,95256.28
2023-05-14T07:19:33.118Z,95252.59
2023-05-14T07:22:35.011Z,95250.84
2023-05-14T07:25:36.914Z,95251.31
2023-05-14T07:28:38.765Z,95256.28
2023-05-14T07:31:40.792Z,95251.06
2023-05-14T07:34:42.881Z,95257.63
2023-05-14T07:37:44.838Z,95247.31
2023-05-14T07:40:47.206Z,95254.94
2023-05-14T07:43:49.068Z,95242.16
2023-05-14T07:46:51.076Z,95243.34
2023-05-14T07:49:56.415Z,95245.19
2023-05-14T07:52:58.256Z,95239.66
2023-05-14T07:56:00.596Z,95239.47
2023-05-14T07:59:02.773Z,95245.28
2023-05-14T08:02:04.978Z,95244.44
2023-05-14T08:05:07.357Z,95241.78
2023-05-14T08:08:09.144Z,95237.34
2023-05-14T08:11:11.128Z,95227.78
2023-05-14T08:14:12.976Z,95220.66
2023-05-14T08:17:15.053Z,95224.59
2023-05-14T08:20:17.069Z,95219.22
2023-05-14T08:23:19.026Z,95216.75
2023-05-14T08:26:21.969Z,95218.56
2023-05-14T08:29:23.806Z,95207.22
2023-05-14T08:32:25.711Z,95207.69
2023-05-14T08:35:27.593Z,95210.41
2023-05-14T08:38:29.409Z,95207.13
2023-05-14T08:41:32.126Z,95205.22
2023-05-14T08:44:43.915Z,95200.22
2023-05-14T08:47:51.616Z,95195.47
2023-05-14T08:50:53.665Z,95195.03
2023-05-14T08:53:56.107Z,95194.63
2023-05-14T08:56:58.954Z,95201.31
2023-05-14T09:00:01.667Z,95188.81
2023-05-14T09:03:05.547Z,95195.19
2023-05-14T09:06:08.207Z,95195.72
2023-05-14T09:09:11.408Z,95188.16
2023-05-14T09:12:13.356Z,95179.38
2023-05-14T09:15:15.441Z,95172.47
2023-05-14T09:18:17.568Z,95165.44
2023-05-14T09:21:20.156Z,95170.47
2023-05-14T09:24:24.472Z,95158.97
2023-05-14T09:27:29.565Z,95157.28
2023-05-14T09:30:31.648Z,95155.56
2023-05-14T09:33:33.521Z,95142.81
2023-05-14T09:36:35.579Z,95145.03
2023-05-14T09:39:38.676Z,95144.25
2023-05-14T09:42:41.550Z,95144.38
2023-05-14T09:45:43.557Z,95139.16
2023-05-14T09:48:46.510Z,95146.50
2023-05-14T09:51:49.201Z,95140.75
2023-05-14T09:54:52.626Z,95137.69
2023-05-14T09:57:54.535Z,95132.56
2023-05-14T10:00:57.738Z,95132.31
2023-05-14T10:04:00.140Z,95139.81
2023-05-14T10:07:03.059Z,95133.34
2023-05-14T10:10:08.735Z,95134.38
2023-05-14T10:13:15.656Z,95137.25
2023-05-14T10:16:24.351Z,95127.63
2023-05-14T10:19:26.834Z,95132.47
2023-05-14T10:22:34.053Z,95114.44
2023-05-14T10:25:36.942Z,95107.63
2023-05-14T10:28:39.138Z,95097.41
2023-05-14T10:31:51.630Z,95101.09
2023-05-14T10:34:54.032Z,95111.09
2023-05-14T10:37:56.891Z,95102.22
2023-05-14T10:41:04.292Z,95094.41
2023-05-14T10:44:10.177Z,95096.25
2023-05-14T10:47:12.071Z,95089.56
2023-05-14T10:50:17.645Z,95069.78
2023-05-14T10:53:20.395Z,95076.66
2023-05-14T10:56:22.376Z,95078.44
2023-05-14T10:59:27.684Z,95065.69
2023-05-14T11:02:32.670Z,95056.41
2023-05-14T11:05:37.614Z,95063.31
2023-05-14T11:08:39.916Z,95057.66
2023-05-14T11:11:42.029Z,95052.06
2023-05-14T11:14:43.850Z,95050.41
2023-05-14T11:17:47.038Z,95048.34
2023-05-14T11:20:49.028Z,95043.47
2023-05-14T11:23:51.016Z,95023.47
2023-05-14T11:26:55.730Z,95031.31
2023-05-14T11:29:58.180Z,95030.44
2023-05-14T11:33:02.045Z,95037.47
2023-05-14T11:36:04.555Z,95047.34
2023-05-14T11:39:07.946Z,95043.03
2023-05-14T11:42:12.561Z,95046.41
2023-05-14T11:45:25.984Z,95018.53
2023-05-14T11:48:27.829Z,95018.75
2023-05-14T11:51:29.681Z,95012.09
2023-05-14T11:54:33.180Z,95010.13
2023-05-14T11:57:35.413Z,95013.97
2023-05-14T12:00:38.447Z,95020.19
2023-05-14T12:03:40.750Z,95028.47
2023-05-14T12:06:42.742Z,95026.72
2023-05-14T12:09:50.116Z,95013.53
2023-05-14T12:12:52.047Z,95006.28
2023-05-14T12:15:56.603Z,95008.75
2023-05-14T12:19:01.902Z,95005.53
2023-05-14T12:22:03.784Z,95001.28
2023-05-14T12:25:12.556Z,94992.84
2023-05-14T12:28:15.928Z,94987.75
2023-05-14T12:31:17.812Z,94980.69
2023-05-14T12:34:19.629Z,94991.84
2023-05-14T12:37:21.556Z,94978.16
2023-05-14T12:40:26.568Z,94976.91
2023-05-14T12:43:31.567Z,94973.94
2023-05-14T12:46:34.330Z,94972.25
2023-05-14T12:49:36.374Z,94971.03
2023-05-14T12:52:39.975Z,94958.38
2023-05-14T12:55:42.285Z,94963.09
2023-05-14T12:58:44.137Z,94952.84
2023-05-14T13:01:46.059Z,94958.84
2023-05-14T13:04:48.054Z,94950.00
2023-05-14T13:07:50.362Z,94962.16
2023-05-14T13:10:53.592Z,94953.81
2023-05-14T13:13:55.841Z,94949.19
2023-05-14T13:16:59.474Z,94945.53
2023-05-14T13:20:01.751Z,94939.56
2023-05-14T13:23:03.658Z,94946.78
2023-05-14T13:26:05.835Z,94937.09
2023-05-14T13:29:07.721Z,94934.47
2023-05-14T13:33:06.831Z,94931.56
2023-05-14T13:36:26.037Z,94935.28
2023-05-14T13:39:30.613Z,94922.78
2023-05-14T13:42:32.651Z,94922.09
2023-05-14T13:45:35.005Z,94921.94
2023-05-14T13:48:37.550Z,94925.84
2023-05-14T13:51:39.616Z,94905.94
2023-05-14T13:54:41.583Z,94896.13
2023-05-14T13:57:43.623Z,94897.59
2023-05-14T14:00:50.553Z,94907.66
2023-05-14T14:03:52.990Z,94907.47
2023-05-14T14:06:56.106Z,94911.53
2023-05-14T14:10:04.759Z,94891.88
2023-05-14T14:13:06.949Z,94897.63
2023-05-14T14:16:27.979Z,94894.75
2023-05-14T14:19:31.799Z,94883.69
2023-05-14T14:22:33.864Z,94889.16
2023-05-14T14:25:35.884Z,94893.81
2023-05-14T14:28:55.058Z,94904.16
2023-05-14T14:31:57.504Z,94886.78
2023-05-14T14:35:02.023Z,94889.00
2023-05-14T14:38:06.431Z,94886.34
2023-05-14T14:41:10.569Z,94899.25
2023-05-14T14:44:12.934Z,94900.84
2023-05-14T14:47:17.082Z,94886.50
2023-05-14T14:50:19.186Z,94892.63
